Time;durP1;ratioP1;P1;durP2;ratioP2;P2;SDS_P1;SDS_P2;PMS_P1;PMS_P2;Temp;Humidity;BMP_temperature;BMP_pressure;BME280_temperature;BME280_humidity;BME280_pressure;Samples;Min_cycle;Max_cycle;Signal;HPM_P1;HPM_P2
2023/07/11 00:01:21;;;;;;;10.90;7.32;;;;;20.20;96709.00;;;;8349990;28;20593;-72
2023/07/11 00:05:27;;;;;;;11.73;7.60;;;;;20.10;96712.00;;;;8340168;28;20225;-70
2023/07/11 00:09:31;;;;;;;9.90;7.20;;;;;20.00;96704.00;;;;8345321;28;20308;-69
2023/07/11 00:13:34;;;;;;;10.38;7.18;;;;;19.90;96701.00;;;;8337902;28;20563;-73
2023/07/11 00:17:37;;;;;;;9.32;7.00;;;;;19.80;96699.00;;;;8333067;28;20211;-70
2023/07/11 00:21:43;;;;;;;11.43;7.93;;;;;19.80;96691.00;;;;8335598;28;20192;-71
2023/07/11 00:25:48;;;;;;;14.20;7.55;;;;;19.80;96690.00;;;;8319079;28;20761;-72
2023/07/11 00:29:54;;;;;;;11.00;8.07;;;;;19.80;96693.00;;;;8338775;28;20659;-73
2023/07/11 00:33:57;;;;;;;11.30;7.70;;;;;19.70;96688.00;;;;8346287;28;20306;-71
2023/07/11 00:38:00;;;;;;;11.90;8.13;;;;;19.50;96688.00;;;;8335776;28;20288;-71
2023/07/11 00:42:13;;;;;;;9.48;7.38;;;;;19.40;96686.00;;;;8344863;28;20196;-73
2023/07/11 00:46:18;;;;;;;13.73;8.25;;;;;19.30;96680.00;;;;8336760;28;20222;-72
2023/07/11 00:50:22;;;;;;;12.45;8.00;;;;;19.40;96680.00;;;;8322879;28;20205;-71
2023/07/11 00:54:32;;;;;;;9.68;7.50;;;;;19.40;96681.00;;;;8334089;28;20664;-71
2023/07/11 00:58:43;;;;;;;11.45;7.80;;;;;19.30;96679.00;;;;8334997;28;20808;-72
2023/07/11 01:02:50;;;;;;;12.05;7.70;;;;;19.20;96684.00;;;;8352707;28;20339;-70
2023/07/11 01:06:53;;;;;;;13.18;8.40;;;;;19.20;96674.00;;;;8345842;28;20258;-71
2023/07/11 01:10:56;;;;;;;13.23;8.35;;;;;19.10;96667.00;;;;8352326;28;20211;-71
2023/07/11 01:15:01;;;;;;;13.40;7.82;;;;;19.10;96668.00;;;;8353559;28;20317;-71
2023/07/11 01:19:04;;;;;;;10.77;8.05;;;;;19.10;96666.00;;;;8349779;28;20204;-71
2023/07/11 01:23:09;;;;;;;12.40;8.35;;;;;19.10;96665.00;;;;8350143;28;20713;-71
2023/07/11 01:27:12;;;;;;;14.60;8.20;;;;;19.00;96660.00;;;;8347478;28;20288;-70
2023/07/11 01:31:15;;;;;;;12.45;8.85;;;;;19.00;96658.00;;;;8347361;28;20240;-71
2023/07/11 01:35:19;;;;;;;12.50;8.38;;;;;19.00;96654.00;;;;8353225;28;20239;-70
2023/07/11 01:39:26;;;;;;;11.98;8.20;;;;;19.00;96646.00;;;;8350977;28;20643;-71
2023/07/11 01:43:30;;;;;;;11.27;8.60;;;;;18.90;96642.00;;;;8341708;28;20284;-72
2023/07/11 01:47:34;;;;;;;14.32;9.20;;;;;18.90;96639.00;;;;8353134;28;20232;-72
2023/07/11 01:51:38;;;;;;;14.10;9.05;;;;;18.80;96639.00;;;;8348647;28;20205;-73
2023/07/11 01:55:43;;;;;;;16.05;9.13;;;;;18.90;96636.00;;;;8350346;28;20232;-70
2023/07/11 01:59:47;;;;;;;11.82;8.82;;;;;18.80;96635.00;;;;8343027;28;20201;-71
2023/07/11 02:03:50;;;;;;;19.85;10.88;;;;;18.70;96628.00;;;;8351300;28;20307;-72
2023/07/11 02:07:54;;;;;;;17.90;10.27;;;;;18.60;96624.00;;;;8344744;28;20658;-71
2023/07/11 02:11:59;;;;;;;26.73;10.45;;;;;18.50;96623.00;;;;8350188;28;20274;-71
2023/07/11 02:16:02;;;;;;;42.80;10.63;;;;;18.50;96617.00;;;;8348729;28;20712;-71
2023/07/11 02:20:11;;;;;;;19.63;10.00;;;;;18.40;96622.00;;;;8350973;28;20705;-70
2023/07/11 02:24:16;;;;;;;17.85;11.13;;;;;18.40;96619.00;;;;8347371;28;20241;-72
2023/07/11 02:28:24;;;;;;;18.23;9.40;;;;;18.40;96612.00;;;;8349023;28;20247;-72
2023/07/11 02:32:27;;;;;;;17.38;10.30;;;;;18.50;96620.00;;;;8347216;28;20201;-71
2023/07/11 02:36:42;;;;;;;17.05;9.77;;;;;18.50;96615.00;;;;8351688;28;20221;-71
2023/07/11 02:40:46;;;;;;;21.63;10.60;;;;;18.50;96610.00;;;;8348579;28;20313;-72
2023/07/11 02:44:50;;;;;;;17.30;11.18;;;;;18.50;96611.00;;;;8348665;28;20292;-71
2023/07/11 02:48:56;;;;;;;17.38;11.80;;;;;18.30;96616.00;;;;8347118;28;20224;-70
2023/07/11 02:53:00;;;;;;;18.13;10.98;;;;;18.20;96612.00;;;;8351265;28;20205;-73
2023/07/11 02:57:04;;;;;;;14.40;10.35;;;;;18.20;96609.00;;;;8326923;28;20659;-71
2023/07/11 03:05:15;;;;;;;19.00;11.35;;;;;18.20;96601.00;;;;8204462;28;20297;-71
2023/07/11 03:09:18;;;;;;;19.80;11.82;;;;;18.10;96597.00;;;;8213926;28;20259;-70
2023/07/11 03:13:25;;;;;;;20.65;11.27;;;;;18.00;96593.00;;;;8218589;28;20415;-70
2023/07/11 03:17:30;;;;;;;15.52;11.18;;;;;18.00;96596.00;;;;8219706;28;20269;-70
2023/07/11 03:21:37;;;;;;;15.60;10.45;;;;;18.00;96588.00;;;;8218067;28;20206;-70
2023/07/11 03:25:41;;;;;;;15.68;10.55;;;;;18.00;96592.00;;;;8220081;28;20201;-73
2023/07/11 03:29:44;;;;;;;17.17;10.40;;;;;18.00;96592.00;;;;8219277;28;20676;-73
2023/07/11 03:33:50;;;;;;;13.95;10.55;;;;;18.00;96593.00;;;;8201713;28;20236;-71
2023/07/11 03:37:55;;;;;;;15.48;11.43;;;;;18.00;96601.00;;;;8205044;28;20230;-69
2023/07/11 03:42:01;;;;;;;16.52;11.23;;;;;18.00;96597.00;;;;8218832;28;20203;-70
2023/07/11 03:46:07;;;;;;;17.45;11.82;;;;;17.90;96600.00;;;;8201684;28;20207;-70
2023/07/11 03:50:11;;;;;;;16.55;11.32;;;;;17.90;96589.00;;;;8218802;28;20857;-73
2023/07/11 03:54:23;;;;;;;19.90;11.05;;;;;17.90;96589.00;;;;8217816;28;21080;-71
2023/07/11 03:58:27;;;;;;;16.63;11.40;;;;;18.00;96588.00;;;;8220511;28;20966;-70
2023/07/11 04:02:30;;;;;;;16.50;10.85;;;;;18.20;96595.00;;;;8197434;28;20249;-70
2023/07/11 04:06:34;;;;;;;19.13;10.80;;;;;18.40;96599.00;;;;8210135;28;20208;-70
2023/07/11 04:10:38;;;;;;;15.77;10.50;;;;;18.50;96600.00;;;;8218024;28;20203;-71
2023/07/11 04:14:42;;;;;;;14.98;10.45;;;;;18.70;96599.00;;;;8203463;28;20712;-71
2023/07/11 04:18:48;;;;;;;16.85;9.82;;;;;19.00;96597.00;;;;8222102;28;20311;-70
2023/07/11 04:22:56;;;;;;;17.60;10.93;;;;;19.20;96592.00;;;;8230816;28;20298;-73
2023/07/11 04:27:01;;;;;;;19.25;10.35;;;;;19.50;96587.00;;;;8224036;28;20230;-72
2023/07/11 04:31:04;;;;;;;15.07;10.18;;;;;19.90;96593.00;;;;8221429;28;20327;-71
2023/07/11 04:35:13;;;;;;;15.25;9.93;;;;;20.10;96591.00;;;;8207457;28;20274;-67
2023/07/11 04:39:17;;;;;;;17.80;10.48;;;;;20.40;96596.00;;;;8220867;28;20573;-68
2023/07/11 04:43:22;;;;;;;16.77;11.10;;;;;20.70;96598.00;;;;8217960;28;20219;-68
2023/07/11 04:47:27;;;;;;;16.63;11.23;;;;;21.10;96597.00;;;;8220820;28;20290;-68
2023/07/11 04:51:34;;;;;;;16.90;9.98;;;;;21.50;96598.00;;;;8215549;28;20203;-68
2023/07/11 04:55:39;;;;;;;15.90;9.95;;;;;21.80;96593.00;;;;8221328;28;20334;-68
2023/07/11 04:59:43;;;;;;;15.13;10.50;;;;;22.10;96601.00;;;;8221691;28;20292;-68
2023/07/11 05:03:48;;;;;;;15.65;10.35;;;;;22.30;96603.00;;;;8220716;28;20977;-68
2023/07/11 05:07:52;;;;;;;14.50;10.63;;;;;22.60;96599.00;;;;8219029;28;20253;-67
2023/07/11 05:11:59;;;;;;;12.38;9.60;;;;;22.90;96599.00;;;;8223212;28;20736;-67
2023/07/11 05:16:07;;;;;;;14.65;11.10;;;;;23.10;96592.00;;;;8220602;28;20247;-67
2023/07/11 05:20:12;;;;;;;15.98;11.50;;;;;23.10;96585.00;;;;8221642;28;20195;-67
2023/07/11 05:24:17;;;;;;;19.10;11.63;;;;;23.40;96586.00;;;;8224754;28;20303;-68
2023/07/11 05:28:21;;;;;;;13.45;10.57;;;;;23.80;96586.00;;;;8220134;28;20243;-67
2023/07/11 05:32:25;;;;;;;16.40;11.43;;;;;24.00;96590.00;;;;8216451;28;20303;-67
2023/07/11 05:36:32;;;;;;;16.20;11.45;;;;;24.20;96585.00;;;;8221463;28;20239;-65
2023/07/11 05:40:41;;;;;;;16.08;11.35;;;;;24.40;96585.00;;;;8219707;28;20215;-70
2023/07/11 05:44:45;;;;;;;15.73;11.68;;;;;24.60;96584.00;;;;8219992;28;20298;-71
2023/07/11 05:48:50;;;;;;;17.98;11.73;;;;;24.80;96581.00;;;;8209870;28;20557;-69
2023/07/11 05:52:54;;;;;;;15.10;11.23;;;;;25.20;96581.00;;;;8221128;28;20195;-70
2023/07/11 05:56:58;;;;;;;18.35;12.27;;;;;25.40;96573.00;;;;8219118;28;20318;-69
2023/07/11 06:01:02;;;;;;;16.88;11.75;;;;;25.70;96585.00;;;;8223393;28;20219;-69
2023/07/11 06:05:09;;;;;;;16.15;12.05;;;;;25.90;96581.00;;;;8223433;28;20211;-71
2023/07/11 06:09:18;;;;;;;15.07;11.05;;;;;26.40;96577.00;;;;8215703;28;20235;-72
2023/07/11 06:13:21;;;;;;;16.67;11.35;;;;;26.70;96585.00;;;;8221429;28;20697;-71
2023/07/11 06:17:29;;;;;;;14.80;11.73;;;;;26.70;96577.00;;;;8218906;28;20245;-72
2023/07/11 06:21:34;;;;;;;16.00;10.65;;;;;26.90;96575.00;;;;8219752;28;20716;-74
2023/07/11 06:25:37;;;;;;;18.52;11.27;;;;;27.50;96583.00;;;;8220474;28;20239;-72
2023/07/11 06:29:43;;;;;;;18.30;11.80;;;;;28.00;96574.00;;;;8223325;28;20342;-71
2023/07/11 06:33:46;;;;;;;19.38;11.82;;;;;28.60;96578.00;;;;8220173;28;20296;-74
2023/07/11 06:37:52;;;;;;;18.55;12.07;;;;;29.30;96582.00;;;;8204027;28;20318;-74
2023/07/11 06:41:55;;;;;;;19.50;11.27;;;;;30.00;96585.00;;;;8221479;28;20207;-73
2023/07/11 06:46:00;;;;;;;19.50;11.40;;;;;30.60;96582.00;;;;8221494;28;20294;-72
2023/07/11 06:50:03;;;;;;;17.05;11.10;;;;;31.40;96577.00;;;;8214566;28;20203;-71
2023/07/11 06:54:10;;;;;;;14.05;9.98;;;;;31.40;96582.00;;;;8222103;28;20246;-73
2023/07/11 06:58:16;;;;;;;12.35;10.70;;;;;31.30;96590.00;;;;8218367;28;20850;-72
2023/07/11 07:02:19;;;;;;;12.13;9.82;;;;;31.50;96580.00;;;;8221770;28;20258;-72
2023/07/11 07:06:25;;;;;;;14.40;11.27;;;;;32.10;96586.00;;;;8221400;28;20573;-73
2023/07/11 07:10:30;;;;;;;18.00;10.73;;;;;32.30;96581.00;;;;8214375;28;20239;-72
2023/07/11 07:14:33;;;;;;;14.50;11.00;;;;;32.80;96580.00;;;;8219058;28;20283;-75
2023/07/11 07:18:41;;;;;;;11.70;9.55;;;;;33.20;96581.00;;;;8211530;28;20224;-73
2023/07/11 07:22:44;;;;;;;13.43;10.45;;;;;33.70;96578.00;;;;8217495;28;20215;-72
2023/07/11 07:26:49;;;;;;;15.65;10.80;;;;;34.10;96575.00;;;;8221254;28;20641;-74
2023/07/11 07:30:54;;;;;;;11.50;9.45;;;;;34.60;96579.00;;;;8215207;28;20291;-71
2023/07/11 07:34:57;;;;;;;14.32;10.48;;;;;35.00;96578.00;;;;8219467;28;20242;-73
2023/07/11 07:39:01;;;;;;;13.68;10.02;;;;;35.20;96572.00;;;;8201403;28;20310;-72
2023/07/11 07:43:06;;;;;;;10.43;9.32;;;;;35.20;96573.00;;;;8220183;28;20235;-72
2023/07/11 07:47:09;;;;;;;13.15;9.52;;;;;35.50;96576.00;;;;8217169;28;20684;-74
2023/07/11 07:51:25;;;;;;;11.23;9.55;;;;;35.80;96577.00;;;;8222797;28;20290;-74
2023/07/11 07:55:30;;;;;;;13.63;9.48;;;;;36.00;96589.00;;;;8208925;28;20207;-73
2023/07/11 07:59:35;;;;;;;10.38;8.82;;;;;36.00;96579.00;;;;8223470;28;20231;-74
2023/07/11 08:03:42;;;;;;;11.15;8.68;;;;;35.90;96578.00;;;;8224642;28;20264;-74
2023/07/11 08:07:46;;;;;;;13.82;8.70;;;;;36.30;96570.00;;;;8224365;28;20207;-75
2023/07/11 08:11:49;;;;;;;13.77;7.70;;;;;36.90;96572.00;;;;8236863;28;20207;-74
2023/07/11 08:15:53;;;;;;;9.27;6.80;;;;;37.30;96562.00;;;;8223675;28;20210;-76
2023/07/11 08:19:59;;;;;;;7.40;5.85;;;;;37.40;96562.00;;;;8221360;28;20302;-72
2023/07/11 08:24:02;;;;;;;8.40;6.15;;;;;37.70;96554.00;;;;8231289;28;20199;-73
2023/07/11 08:28:05;;;;;;;9.85;5.07;;;;;38.10;96551.00;;;;8218249;28;20725;-74
2023/07/11 08:32:10;;;;;;;6.53;5.82;;;;;38.40;96546.00;;;;8224107;28;20282;-76
2023/07/11 08:36:13;;;;;;;10.38;5.75;;;;;38.60;96547.00;;;;8198617;28;20215;-72
2023/07/11 08:40:25;;;;;;;11.88;6.07;;;;;38.30;96541.00;;;;8217712;28;20859;-73
2023/07/11 08:44:52;;;;;;;8.10;6.40;;;;;38.30;96545.00;;;;8218844;28;20243;-73
2023/07/11 08:49:03;;;;;;;8.48;5.72;;;;;38.50;96537.00;;;;8192723;28;20207;-73
2023/07/11 08:53:17;;;;;;;7.60;5.53;;;;;38.40;96540.00;;;;8216861;28;20597;-73
2023/07/11 08:57:23;;;;;;;8.00;5.38;;;;;37.90;96547.00;;;;8211385;28;20581;-73
2023/07/11 09:01:38;;;;;;;6.68;6.00;;;;;37.90;96540.00;;;;8212705;28;20235;-71
2023/07/11 09:05:49;;;;;;;6.88;5.72;;;;;38.50;96529.00;;;;8216038;28;20211;-71
2023/07/11 09:09:54;;;;;;;9.63;6.43;;;;;39.10;96523.00;;;;8214984;28;20200;-72
2023/07/11 09:14:08;;;;;;;6.47;5.63;;;;;39.40;96515.00;;;;8217997;28;20294;-72
2023/07/11 09:18:34;;;;;;;7.07;5.95;;;;;39.70;96507.00;;;;8221268;28;20871;-72
2023/07/11 09:22:48;;;;;;;7.93;5.55;;;;;39.90;96514.00;;;;8219736;28;20799;-70
2023/07/11 09:26:51;;;;;;;7.43;5.70;;;;;40.10;96515.00;;;;8227041;28;20235;-71
2023/07/11 09:30:59;;;;;;;7.72;5.95;;;;;40.20;96512.00;;;;8218305;28;20345;-70
2023/07/11 09:35:22;;;;;;;6.63;5.70;;;;;40.10;96505.00;;;;8221398;28;20246;-71
2023/07/11 09:39:36;;;;;;;10.52;6.22;;;;;39.70;96502.00;;;;8218928;28;20238;-72
2023/07/11 09:43:40;;;;;;;7.70;6.18;;;;;39.90;96496.00;;;;8220118;28;20210;-73
2023/07/11 09:47:50;;;;;;;6.57;5.97;;;;;40.00;96494.00;;;;8219261;28;20288;-73
2023/07/11 09:51:59;;;;;;;7.68;6.28;;;;;40.20;96488.00;;;;8200590;28;20206;-72
2023/07/11 09:56:10;;;;;;;7.60;6.32;;;;;40.50;96483.00;;;;8218184;28;20218;-73
2023/07/11 10:00:17;;;;;;;9.77;5.93;;;;;40.60;96475.00;;;;8218893;28;20243;-73
2023/07/11 10:04:27;;;;;;;7.65;6.40;;;;;40.60;96486.00;;;;8225512;28;20251;-73
2023/07/11 10:08:35;;;;;;;7.68;6.00;;;;;41.00;96479.00;;;;8198243;28;20206;-72
2023/07/11 10:12:46;;;;;;;7.55;6.78;;;;;41.00;96472.00;;;;8209781;28;20219;-73
2023/07/11 10:16:52;;;;;;;8.90;6.50;;;;;41.50;96469.00;;;;8218535;28;20322;-71
2023/07/11 10:21:07;;;;;;;7.05;6.03;;;;;40.50;96479.00;;;;8218390;28;20199;-71
2023/07/11 10:25:20;;;;;;;12.85;6.32;;;;;40.80;96474.00;;;;8216297;28;20204;-70
2023/07/11 10:29:28;;;;;;;9.85;6.45;;;;;41.50;96456.00;;;;8217847;28;20294;-71
2023/07/11 10:33:35;;;;;;;10.52;5.90;;;;;40.90;96447.00;;;;8221697;28;20723;-70
2023/07/11 10:38:00;;;;;;;8.30;6.05;;;;;40.60;96448.00;;;;8221082;28;20255;-71
2023/07/11 10:42:14;;;;;;;7.32;5.07;;;;;41.10;96442.00;;;;8222064;28;20772;-71
2023/07/11 10:46:31;;;;;;;6.68;5.50;;;;;41.40;96441.00;;;;8220227;28;20208;-71
2023/07/11 10:50:40;;;;;;;8.07;5.97;;;;;41.80;96433.00;;;;8219294;28;20331;-71
2023/07/11 10:54:49;;;;;;;6.57;5.32;;;;;41.90;96424.00;;;;8222250;28;20212;-71
2023/07/11 10:58:56;;;;;;;7.10;5.40;;;;;41.90;96424.00;;;;8219747;28;20733;-71
2023/07/11 11:03:07;;;;;;;8.55;5.40;;;;;42.10;96421.00;;;;8221509;28;20259;-71
2023/07/11 11:07:23;;;;;;;5.70;4.75;;;;;42.20;96406.00;;;;8214543;28;20655;-70
2023/07/11 11:11:34;;;;;;;9.82;5.43;;;;;41.90;96407.00;;;;8208640;28;20629;-71
2023/07/11 11:15:52;;;;;;;7.07;4.70;;;;;41.90;96395.00;;;;8218049;28;20243;-71
2023/07/11 11:20:16;;;;;;;6.22;5.47;;;;;42.30;96392.00;;;;8220125;28;20266;-70
2023/07/11 11:24:37;;;;;;;9.80;5.60;;;;;42.60;96388.00;;;;8234122;28;20234;-71
2023/07/11 11:28:56;;;;;;;6.30;5.40;;;;;42.00;96387.00;;;;8215468;28;20294;-71
2023/07/11 11:33:11;;;;;;;7.90;6.03;;;;;41.80;96382.00;;;;8217196;28;20295;-71
2023/07/11 11:37:33;;;;;;;7.15;5.85;;;;;42.10;96376.00;;;;8220063;28;20207;-71
2023/07/11 11:41:41;;;;;;;9.88;5.60;;;;;42.30;96378.00;;;;8213748;28;20207;-71
2023/07/11 11:45:45;;;;;;;6.95;6.07;;;;;42.90;96373.00;;;;8220162;28;20211;-71
2023/07/11 11:49:52;;;;;;;6.18;5.57;;;;;42.90;96367.00;;;;8218257;28;20214;-70
2023/07/11 11:54:06;;;;;;;7.13;5.85;;;;;42.80;96372.00;;;;8220619;28;20215;-71
2023/07/11 11:58:24;;;;;;;8.07;6.38;;;;;42.90;96360.00;;;;8220992;28;20235;-71
2023/07/11 12:02:36;;;;;;;10.30;5.97;;;;;42.90;96354.00;;;;8221305;28;20290;-71
2023/07/11 12:06:44;;;;;;;8.13;6.10;;;;;43.00;96344.00;;;;8217332;28;20242;-71
2023/07/11 12:11:17;;;;;;;8.15;5.30;;;;;42.80;96350.00;;;;8215584;28;20290;-71
2023/07/11 12:15:29;;;;;;;10.23;6.10;;;;;42.70;96349.00;;;;8218125;28;20299;-71
2023/07/11 12:19:59;;;;;;;8.20;6.35;;;;;42.40;96338.00;;;;8211819;28;20242;-70
2023/07/11 12:24:25;;;;;;;9.43;6.13;;;;;42.50;96330.00;;;;8208022;28;20219;-70
2023/07/11 12:28:55;;;;;;;8.60;6.18;;;;;42.20;96318.00;;;;8213615;28;20219;-70
2023/07/11 12:33:31;;;;;;;9.07;5.97;;;;;42.70;96309.00;;;;8220332;28;20239;-70
2023/07/11 12:37:46;;;;;;;9.88;6.00;;;;;42.70;96313.00;;;;8223358;28;20247;-70
2023/07/11 12:41:59;;;;;;;6.28;5.75;;;;;41.70;96307.00;;;;8226657;28;20231;-70
2023/07/11 12:46:13;;;;;;;7.55;5.93;;;;;41.30;96295.00;;;;8221932;28;20298;-70
2023/07/11 12:50:22;;;;;;;6.63;5.47;;;;;41.50;96287.00;;;;8221374;28;20214;-70
2023/07/11 12:54:28;;;;;;;11.40;5.82;;;;;41.90;96293.00;;;;8217070;28;20842;-70
2023/07/11 12:58:33;;;;;;;6.93;5.63;;;;;41.80;96277.00;;;;8225149;28;20735;-70
2023/07/11 13:02:37;;;;;;;9.18;5.50;;;;;41.70;96269.00;;;;8224580;28;20322;-70
2023/07/11 13:06:44;;;;;;;6.43;5.82;;;;;41.10;96259.00;;;;8222368;28;20207;-70
2023/07/11 13:10:50;;;;;;;8.98;5.60;;;;;40.30;96261.00;;;;8218476;28;20207;-70
2023/07/11 13:14:56;;;;;;;9.23;6.00;;;;;40.10;96261.00;;;;8220101;28;20195;-70
2023/07/11 13:19:06;;;;;;;7.63;6.15;;;;;40.60;96246.00;;;;8223498;28;21126;-70
2023/07/11 13:23:16;;;;;;;8.80;5.28;;;;;41.60;96241.00;;;;8231306;28;20298;-70
2023/07/11 13:27:23;;;;;;;6.97;5.78;;;;;42.60;96242.00;;;;8225676;28;20749;-70
2023/07/11 13:31:30;;;;;;;6.30;5.22;;;;;43.10;96245.00;;;;8207058;28;20286;-70
2023/07/11 13:35:35;;;;;;;5.68;5.15;;;;;43.40;96248.00;;;;8217510;28;20693;-71
2023/07/11 13:39:47;;;;;;;7.35;5.53;;;;;43.10;96235.00;;;;8221827;28;20274;-70
2023/07/11 13:44:01;;;;;;;7.55;5.50;;;;;43.50;96241.00;;;;8223408;28;20560;-71
2023/07/11 13:48:05;;;;;;;6.40;5.30;;;;;43.30;96247.00;;;;8221997;28;20203;-70
2023/07/11 13:52:20;;;;;;;6.15;5.30;;;;;41.50;96250.00;;;;8225768;28;20402;-70
2023/07/11 13:56:26;;;;;;;10.73;5.18;;;;;41.20;96235.00;;;;8222556;28;20208;-70
2023/07/11 14:00:30;;;;;;;5.60;5.00;;;;;42.60;96236.00;;;;8214751;28;21043;-70
2023/07/11 14:04:36;;;;;;;8.27;5.00;;;;;43.10;96241.00;;;;8222755;28;20286;-70
2023/07/11 14:08:41;;;;;;;5.60;5.03;;;;;43.50;96222.00;;;;8215181;28;20217;-70
2023/07/11 14:12:44;;;;;;;7.18;4.55;;;;;43.50;96223.00;;;;8217036;28;20468;-70
2023/07/11 14:16:48;;;;;;;7.90;5.07;;;;;43.70;96213.00;;;;8211545;28;20321;-70
2023/07/11 14:20:53;;;;;;;6.10;5.00;;;;;43.30;96218.00;;;;8217159;28;20756;-71
2023/07/11 14:24:58;;;;;;;8.68;4.53;;;;;42.70;96219.00;;;;8199332;28;20214;-71
2023/07/11 14:29:05;;;;;;;8.02;5.13;;;;;42.60;96211.00;;;;8211339;28;20222;-73
2023/07/11 14:33:12;;;;;;;6.68;5.45;;;;;43.00;96203.00;;;;8217217;28;20772;-73
2023/07/11 14:37:16;;;;;;;7.22;5.20;;;;;42.90;96199.00;;;;8218070;28;20210;-71
2023/07/11 14:41:21;;;;;;;8.38;5.28;;;;;42.60;96186.00;;;;8221314;28;20266;-72
2023/07/11 14:45:28;;;;;;;7.93;5.63;;;;;43.10;96181.00;;;;8220942;28;20203;-73
2023/07/11 14:49:36;;;;;;;5.47;4.97;;;;;42.90;96170.00;;;;8215576;28;20807;-73
2023/07/11 14:53:45;;;;;;;11.65;5.40;;;;;43.40;96173.00;;;;8205944;28;20231;-72
2023/07/11 14:57:52;;;;;;;5.68;5.03;;;;;43.50;96172.00;;;;8216907;28;20322;-73
2023/07/11 15:02:00;;;;;;;5.85;5.30;;;;;43.80;96171.00;;;;8220241;28;20237;-76
2023/07/11 15:06:05;;;;;;;10.13;5.38;;;;;44.00;96170.00;;;;8217042;28;20238;-76
2023/07/11 15:10:28;;;;;;;6.82;5.20;;;;;42.80;96171.00;;;;8218133;28;20198;-74
2023/07/11 15:14:33;;;;;;;8.88;4.72;;;;;42.20;96166.00;;;;8208853;28;20214;-76
2023/07/11 15:18:39;;;;;;;9.88;5.28;;;;;42.60;96154.00;;;;8215866;28;20933;-76
2023/07/11 15:22:44;;;;;;;6.60;5.03;;;;;43.30;96144.00;;;;8219247;28;20295;-72
2023/07/11 15:26:48;;;;;;;6.28;5.00;;;;;43.70;96128.00;;;;8227885;28;20203;-72
2023/07/11 15:30:55;;;;;;;9.45;5.00;;;;;43.50;96137.00;;;;8220736;28;21043;-77
2023/07/11 15:34:58;;;;;;;6.47;4.63;;;;;43.10;96127.00;;;;8220079;28;20226;-77
2023/07/11 15:39:03;;;;;;;7.30;5.47;;;;;42.80;96127.00;;;;8218776;28;20823;-75
2023/07/11 15:43:13;;;;;;;6.22;5.53;;;;;42.50;96126.00;;;;8218833;28;20230;-76
2023/07/11 15:47:20;;;;;;;9.30;5.28;;;;;42.10;96114.00;;;;8215474;28;20298;-74
2023/07/11 15:51:25;;;;;;;10.10;5.93;;;;;41.80;96118.00;;;;8218162;28;20218;-77
2023/07/11 15:55:32;;;;;;;9.52;4.93;;;;;41.60;96117.00;;;;8220487;28;20632;-72
2023/07/11 15:59:35;;;;;;;6.32;5.10;;;;;41.60;96111.00;;;;8215572;28;20326;-74
2023/07/11 16:03:39;;;;;;;6.68;5.00;;;;;41.60;96116.00;;;;8222020;28;20318;-76
2023/07/11 16:07:48;;;;;;;7.45;5.40;;;;;40.90;96115.00;;;;8221738;28;20206;-71
2023/07/11 16:11:52;;;;;;;8.20;5.50;;;;;40.10;96108.00;;;;8224705;28;20207;-75
2023/07/11 16:15:58;;;;;;;9.65;5.70;;;;;40.10;96110.00;;;;8220261;28;20235;-73
2023/07/11 16:20:17;;;;;;;11.80;6.03;;;;;39.90;96105.00;;;;8226877;28;20227;-72
2023/07/11 16:24:23;;;;;;;15.23;6.00;;;;;39.40;96110.00;;;;8227470;28;20212;-73
2023/07/11 16:28:28;;;;;;;9.50;5.78;;;;;39.10;96107.00;;;;8223546;28;20870;-73
2023/07/11 16:32:31;;;;;;;9.40;5.85;;;;;39.00;96101.00;;;;8220900;28;20208;-74
2023/07/11 16:36:36;;;;;;;8.98;5.15;;;;;38.70;96097.00;;;;8220239;28;20371;-75
2023/07/11 16:40:44;;;;;;;9.25;5.88;;;;;38.30;96092.00;;;;8223746;28;20228;-73
2023/07/11 16:44:48;;;;;;;7.82;5.90;;;;;38.30;96089.00;;;;8229635;28;20710;-71
2023/07/11 16:48:51;;;;;;;9.07;5.18;;;;;39.00;96088.00;;;;8223177;28;20204;-69
2023/07/11 16:53:00;;;;;;;7.47;5.55;;;;;39.80;96074.00;;;;8211273;28;20200;-76
2023/07/11 16:57:14;;;;;;;9.02;5.97;;;;;40.10;96063.00;;;;8222944;28;20768;-75
2023/07/11 17:01:28;;;;;;;10.98;5.47;;;;;40.00;96069.00;;;;8221149;28;20285;-75
2023/07/11 17:05:32;;;;;;;7.50;5.95;;;;;39.90;96059.00;;;;8219739;28;20215;-73
2023/07/11 17:09:40;;;;;;;10.95;5.50;;;;;39.60;96057.00;;;;8224129;28;20641;-73
2023/07/11 17:13:48;;;;;;;6.55;5.00;;;;;39.80;96052.00;;;;8221465;28;20291;-79
2023/07/11 17:17:52;;;;;;;8.77;5.20;;;;;40.10;96056.00;;;;8221519;28;20199;-78
2023/07/11 17:21:56;;;;;;;9.30;5.28;;;;;40.50;96055.00;;;;8224403;28;20323;-78
2023/07/11 17:26:01;;;;;;;7.28;4.97;;;;;41.20;96057.00;;;;8233208;28;20234;-81
2023/07/11 17:30:13;;;;;;;9.93;5.05;;;;;41.80;96059.00;;;;8207084;28;20290;-79
2023/07/11 17:34:18;;;;;;;5.97;4.80;;;;;42.10;96056.00;;;;8212879;28;20660;-81
2023/07/11 17:38:25;;;;;;;8.07;5.20;;;;;41.60;96049.00;;;;8224702;28;20211;-77
2023/07/11 17:42:30;;;;;;;7.05;4.80;;;;;40.90;96042.00;;;;8225225;28;20231;-77
2023/07/11 17:46:33;;;;;;;8.20;5.18;;;;;40.20;96043.00;;;;8223855;28;20619;-77
2023/07/11 17:50:40;;;;;;;10.18;5.35;;;;;39.20;96039.00;;;;8222451;28;20210;-76
2023/07/11 17:54:44;;;;;;;7.20;5.55;;;;;38.10;96026.00;;;;8224787;28;20204;-77
2023/07/11 17:58:52;;;;;;;10.30;5.22;;;;;37.00;96016.00;;;;8230980;28;20301;-72
2023/07/11 18:02:55;;;;;;;10.50;5.07;;;;;36.10;96017.00;;;;8222506;28;20321;-78
2023/07/11 18:07:06;;;;;;;10.40;5.45;;;;;35.30;96015.00;;;;8218549;28;20219;-76
2023/07/11 18:11:14;;;;;;;7.45;5.00;;;;;34.50;96008.00;;;;8220099;28;20262;-72
2023/07/11 18:15:20;;;;;;;11.48;5.68;;;;;33.90;96006.00;;;;8219141;28;20294;-71
2023/07/11 18:19:25;;;;;;;7.95;5.72;;;;;33.40;95993.00;;;;8217751;28;20231;-73
2023/07/11 18:23:29;;;;;;;12.38;6.45;;;;;32.90;95992.00;;;;8220730;28;20644;-70
2023/07/11 18:27:36;;;;;;;8.15;5.95;;;;;32.40;95983.00;;;;8203431;28;20212;-70
2023/07/11 18:31:41;;;;;;;9.65;6.18;;;;;32.00;95980.00;;;;8216938;28;20199;-72
2023/07/11 18:35:46;;;;;;;8.95;5.88;;;;;31.60;95979.00;;;;8224808;28;20204;-72
2023/07/11 18:39:55;;;;;;;10.98;6.28;;;;;31.10;95959.00;;;;8214448;28;20291;-71
2023/07/11 18:43:58;;;;;;;8.73;6.53;;;;;30.70;95949.00;;;;8209307;28;20216;-71
2023/07/11 18:48:03;;;;;;;9.07;6.63;;;;;30.40;95941.00;;;;8208227;28;20272;-70
2023/07/11 18:52:14;;;;;;;11.05;6.43;;;;;30.20;95924.00;;;;8210412;28;20235;-71
2023/07/11 18:56:24;;;;;;;11.15;6.30;;;;;29.90;95896.00;;;;8211519;28;20212;-70
2023/07/11 19:00:30;;;;;;;10.05;6.43;;;;;29.80;95891.00;;;;8189203;28;20298;-71
2023/07/11 19:04:37;;;;;;;12.27;7.28;;;;;29.70;95900.00;;;;8209457;28;20253;-71
2023/07/11 19:08:49;;;;;;;12.70;6.72;;;;;29.60;95908.00;;;;8207997;28;20272;-70
2023/07/11 19:13:42;;;;;;;12.43;7.13;;;;;29.30;95906.00;;;;8213559;28;20298;-69
2023/07/11 19:17:50;;;;;;;15.77;7.00;;;;;29.00;95881.00;;;;8205887;28;20215;-70
2023/07/11 19:21:58;;;;;;;14.80;7.40;;;;;28.80;95892.00;;;;8214984;28;20314;-72
2023/07/11 19:26:02;;;;;;;18.40;7.10;;;;;28.70;95897.00;;;;8203824;28;20327;-71
2023/07/11 19:30:19;;;;;;;12.88;6.38;;;;;28.60;95898.00;;;;8214798;28;20298;-71
2023/07/11 19:34:24;;;;;;;12.10;6.30;;;;;28.60;95910.00;;;;8210907;28;20209;-69
2023/07/11 19:38:32;;;;;;;11.43;6.30;;;;;28.70;95918.00;;;;8204703;28;20569;-67
2023/07/11 19:42:36;;;;;;;11.00;6.75;;;;;28.70;95900.00;;;;8207801;28;20649;-68
2023/07/11 19:46:40;;;;;;;9.55;6.47;;;;;28.80;95890.00;;;;8206009;28;20737;-69
2023/07/11 19:50:47;;;;;;;12.73;6.43;;;;;28.80;95882.00;;;;8221274;28;20222;-72
2023/07/11 19:54:52;;;;;;;10.73;6.55;;;;;28.70;95880.00;;;;8221905;28;20207;-72
2023/07/11 19:58:58;;;;;;;12.27;6.60;;;;;28.70;95888.00;;;;8219863;28;20939;-73
2023/07/11 20:03:10;;;;;;;12.10;7.10;;;;;28.60;95876.00;;;;8224302;28;20297;-70
2023/07/11 20:07:15;;;;;;;10.60;6.55;;;;;28.40;95874.00;;;;8221862;28;20239;-71
2023/07/11 20:11:32;;;;;;;8.48;6.82;;;;;28.20;95870.00;;;;8215050;28;20374;-74
2023/07/11 20:15:39;;;;;;;10.98;6.55;;;;;28.10;95865.00;;;;8216167;28;20235;-71
2023/07/11 20:19:45;;;;;;;7.22;6.32;;;;;28.10;95871.00;;;;8229025;28;20283;-71
2023/07/11 20:23:51;;;;;;;9.35;6.28;;;;;28.10;95889.00;;;;8226154;28;20230;-70
2023/07/11 20:28:07;;;;;;;8.75;6.38;;;;;28.20;95896.00;;;;8221556;28;20212;-70
2023/07/11 20:32:14;;;;;;;10.73;6.63;;;;;28.20;95896.00;;;;8219699;28;20290;-69